createdAt,value
2018-01-05T00:00:34.996Z,7.70
2018-01-05T00:01:37.588Z,7.70
2018-01-05T00:02:40.257Z,7.70
2018-01-05T00:03:42.843Z,7.70
2018-01-05T00:04:45.378Z,7.70
2018-01-05T00:05:48.708Z,7.60
2018-01-05T00:06:51.312Z,7.60
2018-01-05T00:07:53.869Z,7.60
2018-01-05T00:08:56.573Z,7.60
2018-01-05T00:09:59.128Z,7.50
2018-01-05T00:11:01.704Z,7.50
2018-01-05T00:12:05.141Z,7.60
2018-01-05T00:13:07.785Z,7.60
2018-01-05T00:14:10.569Z,7.60
2018-01-05T00:15:13.232Z,7.60
2018-01-05T00:16:16.002Z,7.60
2018-01-05T00:17:18.550Z,7.60
2018-01-05T00:18:21.159Z,7.60
2018-01-05T00:19:23.694Z,7.60
2018-01-05T00:20:26.241Z,7.60
2018-01-05T00:21:28.797Z,7.60
2018-01-05T00:22:31.336Z,7.50
2018-01-05T00:23:34.128Z,7.60
2018-01-05T00:24:37.460Z,7.60
2018-01-05T00:25:39.997Z,7.60
2018-01-05T00:26:43.298Z,7.60
2018-01-05T00:27:45.861Z,7.60
2018-01-05T00:28:49.177Z,7.60
2018-01-05T00:29:51.720Z,7.60
2018-01-05T00:30:55.746Z,7.70
2018-01-05T00:31:58.287Z,7.60
2018-01-05T00:33:00.877Z,7.70
2018-01-05T00:34:03.428Z,7.70
2018-01-05T00:35:06.084Z,7.70
2018-01-05T00:36:08.692Z,7.70
2018-01-05T00:37:12.557Z,7.70
2018-01-05T00:38:15.605Z,7.70
2018-01-05T00:39:18.201Z,7.70
2018-01-05T00:40:20.771Z,7.70
2018-01-05T00:41:23.348Z,7.70
2018-01-05T00:42:25.968Z,7.70
2018-01-05T00:43:29.265Z,7.70
2018-01-05T00:44:31.877Z,7.70
2018-01-05T00:45:35.300Z,7.70
2018-01-05T00:46:38.734Z,7.70
2018-01-05T00:47:42.208Z,7.70
2018-01-05T00:48:45.485Z,7.70
2018-01-05T00:49:48.789Z,7.70
2018-01-05T00:50:51.390Z,7.70
2018-01-05T00:51:53.938Z,7.70
2018-01-05T00:52:56.511Z,7.70
2018-01-05T00:53:59.017Z,7.80
2018-01-05T00:55:01.569Z,7.70
2018-01-05T00:56:04.848Z,7.70
2018-01-05T00:57:07.382Z,7.80
2018-01-05T00:58:10.814Z,7.70
2018-01-05T00:59:13.339Z,7.70
2018-01-05T01:00:16.729Z,7.70
2018-01-05T01:01:19.282Z,7.80
2018-01-05T01:02:21.819Z,7.80
2018-01-05T01:03:24.361Z,7.70
2018-01-05T01:04:26.888Z,7.70
2018-01-05T01:05:29.404Z,7.70
2018-01-05T01:06:32.709Z,7.70
2018-01-05T01:07:35.258Z,7.70
2018-01-05T01:08:37.803Z,7.70
2018-01-05T01:09:40.332Z,7.70
2018-01-05T01:10:42.939Z,7.70
2018-01-05T01:11:45.509Z,7.70
2018-01-05T01:12:48.054Z,7.70
2018-01-05T01:13:50.589Z,7.70
2018-01-05T01:14:53.125Z,7.70
2018-01-05T01:15:55.694Z,7.70
2018-01-05T01:16:58.223Z,7.70
2018-01-05T01:18:01.609Z,7.60
2018-01-05T01:19:04.909Z,7.70
2018-01-05T01:20:08.209Z,7.70
2018-01-05T01:21:10.800Z,7.70
2018-01-05T01:22:13.325Z,7.70
2018-01-05T01:23:16.613Z,7.70
2018-01-05T01:24:19.986Z,7.60
2018-01-05T01:25:22.501Z,7.60
2018-01-05T01:26:25.007Z,7.60
2018-01-05T01:27:27.514Z,7.60
2018-01-05T01:28:30.012Z,7.60
2018-01-05T01:29:32.589Z,7.60
2018-01-05T01:30:35.114Z,7.60
2018-01-05T01:31:37.621Z,7.60
2018-01-05T01:32:40.114Z,7.60
2018-01-05T01:33:42.660Z,7.60
2018-01-05T01:34:46.003Z,7.50
2018-01-05T01:35:48.540Z,7.50
2018-01-05T01:36:51.070Z,7.50
2018-01-05T01:37:53.577Z,7.50
2018-01-05T01:38:56.810Z,7.40
2018-01-05T01:39:59.393Z,7.40
2018-01-05T01:41:02.712Z,7.30
2018-01-05T01:42:06.029Z,7.20
2018-01-05T01:43:08.603Z,7.20
2018-01-05T01:44:11.178Z,7.20
2018-01-05T01:45:13.713Z,7.20
2018-01-05T01:46:17.084Z,7.10
2018-01-05T01:47:19.605Z,7.20
2018-01-05T01:48:22.124Z,7.10
2018-01-05T01:49:25.320Z,7.10
2018-01-05T01:50:27.881Z,7.10
2018-01-05T01:51:30.468Z,7.00
2018-01-05T01:52:33.768Z,6.90
2018-01-05T01:53:37.059Z,6.90
2018-01-05T01:54:40.419Z,6.90
2018-01-05T01:55:42.928Z,6.80
2018-01-05T01:56:45.478Z,6.90
2018-01-05T01:57:48.064Z,6.90
2018-01-05T01:58:51.522Z,6.90
2018-01-05T01:59:54.833Z,6.90
2018-01-05T02:00:57.334Z,6.90
2018-01-05T02:01:59.876Z,6.90
2018-01-05T02:03:03.497Z,6.90
2018-01-05T02:04:06.056Z,6.90
2018-01-05T02:05:09.997Z,7.00
2018-01-05T02:06:12.525Z,7.00
2018-01-05T02:07:15.039Z,7.00
2018-01-05T02:08:17.577Z,7.00
2018-01-05T02:09:20.104Z,7.00
2018-01-05T02:10:22.672Z,7.00
2018-01-05T02:11:25.212Z,7.00
2018-01-05T02:12:27.772Z,7.10
2018-01-05T02:13:31.081Z,7.10
2018-01-05T02:14:33.631Z,7.10
2018-01-05T02:15:36.146Z,7.10
2018-01-05T02:16:38.673Z,7.10
2018-01-05T02:17:41.252Z,7.10
2018-01-05T02:18:43.764Z,7.10
2018-01-05T02:19:46.316Z,7.00
2018-01-05T02:20:48.844Z,6.90
2018-01-05T02:21:52.123Z,6.80
2018-01-05T02:22:55.395Z,6.70
2018-01-05T02:23:58.127Z,6.70
2018-01-05T02:25:00.641Z,6.70
2018-01-05T02:26:03.156Z,6.70
2018-01-05T02:27:05.673Z,6.60
2018-01-05T02:28:08.202Z,6.60
2018-01-05T02:29:10.835Z,6.60
2018-01-05T02:30:13.371Z,6.50
2018-01-05T02:31:15.969Z,6.50
2018-01-05T02:32:18.550Z,6.50
2018-01-05T02:33:21.864Z,6.50
2018-01-05T02:34:25.162Z,6.50
2018-01-05T02:35:27.721Z,6.50
2018-01-05T02:36:31.009Z,6.50
2018-01-05T02:37:34.315Z,6.50
2018-01-05T02:38:37.629Z,6.50
2018-01-05T02:39:40.151Z,6.50
2018-01-05T02:40:42.674Z,6.50
2018-01-05T02:41:45.192Z,6.50
2018-01-05T02:42:47.704Z,6.50
2018-01-05T02:43:50.211Z,6.40
2018-01-05T02:44:52.760Z,6.40
2018-01-05T02:45:55.284Z,6.30
2018-01-05T02:46:57.875Z,6.30
2018-01-05T02:48:01.152Z,6.30
2018-01-05T02:49:04.440Z,6.30
2018-01-05T02:50:07.749Z,6.40
2018-01-05T02:51:10.359Z,6.30
2018-01-05T02:52:12.886Z,6.40
2018-01-05T02:53:15.401Z,6.40
2018-01-05T02:54:17.914Z,6.40
2018-01-05T02:55:21.307Z,6.40
2018-01-05T02:56:23.790Z,6.40
2018-01-05T02:57:26.300Z,6.40
2018-01-05T02:58:28.808Z,6.40
2018-01-05T02:59:31.341Z,6.50
2018-01-05T03:00:33.843Z,6.50
2018-01-05T03:01:36.395Z,6.50
2018-01-05T03:02:38.914Z,6.50
2018-01-05T03:03:42.246Z,6.60
2018-01-05T03:04:44.844Z,6.60
2018-01-05T03:05:47.350Z,6.70
2018-01-05T03:06:50.825Z,6.70
2018-01-05T03:07:54.109Z,6.80
2018-01-05T03:08:56.871Z,6.80
2018-01-05T03:10:00.760Z,6.80
2018-01-05T03:11:03.278Z,6.80
2018-01-05T03:12:06.560Z,6.90
2018-01-05T03:13:09.127Z,6.90
2018-01-05T03:14:12.226Z,7.00
2018-01-05T03:15:16.208Z,7.00
2018-01-05T03:16:19.589Z,7.00
2018-01-05T03:17:22.128Z,7.10
2018-01-05T03:18:24.651Z,7.10
2018-01-05T03:19:27.175Z,7.20
2018-01-05T03:20:29.765Z,7.20
2018-01-05T03:21:32.285Z,7.20
2018-01-05T03:22:34.823Z,7.20
2018-01-05T03:23:37.352Z,7.20
2018-01-05T03:24:40.495Z,7.20
2018-01-05T03:25:43.008Z,7.20
2018-01-05T03:26:45.534Z,7.30
2018-01-05T03:27:48.046Z,7.30
2018-01-05T03:28:59.882Z,7.30
2018-01-05T03:30:02.481Z,7.30
2018-01-05T03:31:05.003Z,7.30
2018-01-05T03:32:07.509Z,7.30
2018-01-05T03:33:13.449Z,7.40
2018-01-05T03:34:16.067Z,7.40
2018-01-05T03:35:18.576Z,7.40
2018-01-05T03:36:21.099Z,7.40
2018-01-05T03:37:24.358Z,7.50
2018-01-05T03:38:26.902Z,7.40
2018-01-05T03:39:29.439Z,7.50
2018-01-05T03:40:32.014Z,7.50
2018-01-05T03:41:34.524Z,7.60
2018-01-05T03:42:37.131Z,7.60
2018-01-05T03:43:39.628Z,7.60
2018-01-05T03:44:42.155Z,7.60
2018-01-05T03:45:44.650Z,7.60
2018-01-05T03:46:47.971Z,7.60
2018-01-05T03:47:50.536Z,7.60
2018-01-05T03:48:53.637Z,7.60
2018-01-05T03:49:56.171Z,7.60
2018-01-05T03:50:58.698Z,7.70
2018-01-05T03:52:01.234Z,7.60
2018-01-05T03:53:03.793Z,7.60
2018-01-05T03:54:07.053Z,7.70
2018-01-05T03:55:14.846Z,7.70
2018-01-05T03:56:18.265Z,7.70
2018-01-05T03:57:20.835Z,7.70
2018-01-05T03:58:24.139Z,7.70
2018-01-05T03:59:26.636Z,7.70
2018-01-05T04:00:29.212Z,7.70
2018-01-05T04:01:31.762Z,7.70
2018-01-05T04:02:34.261Z,7.70
2018-01-05T04:03:36.768Z,7.80
2018-01-05T04:04:39.328Z,7.70
2018-01-05T04:05:41.881Z,7.70
2018-01-05T04:06:44.431Z,7.80
2018-01-05T04:07:46.960Z,7.80
2018-01-05T04:08:50.267Z,7.70
2018-01-05T04:09:52.806Z,7.70
2018-01-05T04:10:56.152Z,7.80
2018-01-05T04:11:58.729Z,7.80
2018-01-05T04:13:01.296Z,7.80
2018-01-05T04:14:03.837Z,7.80
2018-01-05T04:15:07.148Z,7.80
2018-01-05T04:16:09.744Z,7.80
2018-01-05T04:17:12.349Z,7.80
2018-01-05T04:18:14.881Z,7.80
2018-01-05T04:19:17.415Z,7.80
2018-01-05T04:20:20.848Z,7.80
2018-01-05T04:21:23.404Z,7.80
2018-01-05T04:22:25.924Z,7.90
2018-01-05T04:23:28.445Z,7.80
2018-01-05T04:24:30.989Z,7.90
2018-01-05T04:25:34.297Z,7.80
2018-01-05T04:26:36.867Z,7.80
2018-01-05T04:27:39.390Z,7.80
2018-01-05T04:28:41.952Z,7.90
2018-01-05T04:29:44.468Z,7.90
2018-01-05T04:30:46.969Z,7.90
2018-01-05T04:31:49.506Z,7.90
2018-01-05T04:32:52.045Z,7.90
2018-01-05T04:33:54.576Z,7.90
2018-01-05T04:34:57.387Z,7.90
2018-01-05T04:35:59.992Z,7.80
2018-01-05T04:37:02.553Z,7.80
2018-01-05T04:38:05.054Z,7.90
2018-01-05T04:39:08.343Z,7.80
2018-01-05T04:40:10.859Z,7.80
2018-01-05T04:41:14.070Z,7.80
2018-01-05T04:42:16.576Z,7.80
2018-01-05T04:43:19.855Z,7.80
2018-01-05T04:44:23.163Z,7.80
2018-01-05T04:45:25.683Z,7.80
2018-01-05T04:46:28.252Z,7.80
2018-01-05T04:47:30.760Z,7.80
2018-01-05T04:48:34.035Z,7.80
2018-01-05T04:49:37.392Z,7.80
2018-01-05T04:50:39.972Z,7.80
2018-01-05T04:51:42.499Z,7.80
2018-01-05T04:52:45.069Z,7.90
2018-01-05T04:53:48.512Z,7.90
2018-01-05T04:54:51.824Z,7.80
2018-01-05T04:55:55.108Z,7.90
2018-01-05T04:56:57.678Z,7.80
2018-01-05T04:58:01.045Z,7.90
2018-01-05T04:59:03.626Z,7.90
2018-01-05T05:00:06.148Z,7.90
2018-01-05T05:01:08.727Z,7.90
2018-01-05T05:02:11.837Z,7.80
2018-01-05T05:03:14.873Z,7.80
2018-01-05T05:04:18.326Z,7.80
2018-01-05T05:05:20.912Z,7.80
2018-01-05T05:06:23.416Z,7.80
2018-01-05T05:07:26.016Z,7.80
2018-01-05T05:08:28.602Z,7.90
2018-01-05T05:09:31.176Z,7.80
2018-01-05T05:10:33.795Z,7.80
2018-01-05T05:11:37.050Z,7.80
2018-01-05T05:12:39.604Z,7.80
2018-01-05T05:13:42.130Z,7.80
2018-01-05T05:14:45.409Z,7.80
2018-01-05T05:15:48.688Z,7.80
2018-01-05T05:16:51.189Z,7.70
2018-01-05T05:17:54.579Z,7.70
2018-01-05T05:18:57.106Z,7.70
2018-01-05T05:19:59.607Z,7.70
2018-01-05T05:21:02.899Z,7.70
2018-01-05T05:22:06.180Z,7.60
2018-01-05T05:23:09.415Z,7.60
2018-01-05T05:24:12.568Z,7.60
2018-01-05T05:25:15.097Z,7.50
2018-01-05T05:26:17.674Z,7.50
2018-01-05T05:27:20.180Z,7.50
2018-01-05T05:28:23.492Z,7.40
2018-01-05T05:29:26.033Z,7.40
2018-01-05T05:30:28.522Z,7.40
2018-01-05T05:31:31.127Z,7.40
2018-01-05T05:32:33.695Z,7.40
2018-01-05T05:33:36.267Z,7.40
2018-01-05T05:34:38.799Z,7.30
2018-01-05T05:35:42.157Z,7.30
2018-01-05T05:36:44.693Z,7.30
2018-01-05T05:37:47.204Z,7.20
2018-01-05T05:38:49.739Z,7.20
2018-01-05T05:39:52.264Z,7.20
2018-01-05T05:40:55.518Z,7.10
2018-01-05T05:41:58.833Z,7.10
2018-01-05T05:43:01.373Z,7.10
2018-01-05T05:44:03.905Z,7.10
2018-01-05T05:45:06.455Z,7.10
2018-01-05T05:46:09.758Z,7.10
2018-01-05T05:47:19.091Z,7.10
2018-01-05T05:48:21.610Z,7.00
2018-01-05T05:49:24.188Z,7.00
2018-01-05T05:50:26.713Z,7.00
2018-01-05T05:51:29.248Z,7.00
2018-01-05T05:52:32.530Z,7.00
2018-01-05T05:53:35.033Z,7.00
2018-01-05T05:54:38.320Z,6.90
2018-01-05T05:55:41.625Z,6.90
2018-01-05T05:56:44.335Z,6.90
2018-01-05T05:57:46.840Z,6.90
2018-01-05T05:58:50.132Z,6.90
2018-01-05T05:59:53.466Z,6.90
2018-01-05T06:00:55.987Z,6.90
2018-01-05T06:01:58.504Z,6.90
2018-01-05T06:03:01.046Z,6.90
2018-01-05T06:04:04.353Z,7.00
2018-01-05T06:05:06.859Z,7.00
2018-01-05T06:06:09.402Z,7.00
2018-01-05T06:07:11.929Z,7.00
2018-01-05T06:08:14.525Z,7.00
2018-01-05T06:09:17.141Z,7.00
2018-01-05T06:10:19.692Z,7.10
2018-01-05T06:11:22.263Z,7.10
2018-01-05T06:12:24.808Z,7.10
2018-01-05T06:13:28.132Z,7.10
2018-01-05T06:14:30.651Z,7.10
2018-01-05T06:15:33.184Z,7.10
2018-01-05T06:16:35.696Z,7.10
2018-01-05T06:17:39.034Z,7.20
2018-01-05T06:18:41.538Z,7.20
2018-01-05T06:19:44.089Z,7.20
2018-01-05T06:20:46.617Z,7.20
2018-01-05T06:21:49.148Z,7.30
2018-01-05T06:22:51.698Z,7.30
2018-01-05T06:23:54.223Z,7.30
2018-01-05T06:24:57.564Z,7.40
2018-01-05T06:26:00.169Z,7.30
2018-01-05T06:27:02.715Z,7.40
2018-01-05T06:28:05.244Z,7.40
2018-01-05T06:29:08.507Z,7.40
2018-01-05T06:30:11.039Z,7.40
2018-01-05T06:31:13.542Z,7.50
2018-01-05T06:32:16.100Z,7.50
2018-01-05T06:33:18.615Z,7.60
2018-01-05T06:34:21.139Z,7.60
2018-01-05T06:35:23.716Z,7.60
2018-01-05T06:36:26.525Z,7.60
2018-01-05T06:37:29.039Z,7.70
2018-01-05T06:38:31.606Z,7.70
2018-01-05T06:39:34.112Z,7.70
2018-01-05T06:40:36.654Z,7.80
2018-01-05T06:41:39.166Z,7.80
2018-01-05T06:42:41.699Z,7.80
2018-01-05T06:43:44.217Z,7.90
2018-01-05T06:44:46.725Z,7.90
2018-01-05T06:45:49.242Z,8.00
2018-01-05T06:46:51.775Z,8.00
2018-01-05T06:47:54.371Z,8.00
2018-01-05T06:48:56.940Z,8.00
2018-01-05T06:49:59.478Z,8.00
2018-01-05T06:51:02.972Z,8.00
2018-01-05T06:52:05.486Z,8.10
2018-01-05T06:53:08.033Z,8.10
2018-01-05T06:54:12.304Z,8.10
2018-01-05T06:55:15.649Z,8.10
2018-01-05T06:56:18.144Z,8.10
2018-01-05T06:57:20.660Z,8.10
2018-01-05T06:58:23.255Z,8.10
2018-01-05T06:59:25.753Z,8.20
2018-01-05T07:00:28.296Z,8.10
2018-01-05T07:01:30.815Z,8.20
2018-01-05T07:02:33.380Z,8.20
2018-01-05T07:03:36.693Z,8.20
2018-01-05T07:04:39.959Z,8.20
2018-01-05T07:05:43.275Z,8.20
2018-01-05T07:06:45.784Z,8.20
2018-01-05T07:07:48.427Z,8.20
2018-01-05T07:08:50.939Z,8.30
2018-01-05T07:09:53.479Z,8.30
2018-01-05T07:10:56.096Z,8.30
2018-01-05T07:11:58.598Z,8.30
2018-01-05T07:13:01.632Z,8.30
2018-01-05T07:14:04.139Z,8.30
2018-01-05T07:15:06.644Z,8.30
2018-01-05T07:16:10.322Z,8.30
2018-01-05T07:17:13.693Z,8.40
2018-01-05T07:18:16.204Z,8.40
2018-01-05T07:19:18.741Z,8.40
2018-01-05T07:20:21.301Z,8.30
2018-01-05T07:21:23.802Z,8.40
2018-01-05T07:22:27.140Z,8.30
2018-01-05T07:23:29.654Z,8.30
2018-01-05T07:24:32.944Z,8.20
2018-01-05T07:25:36.253Z,8.20
2018-01-05T07:26:38.791Z,8.20
2018-01-05T07:27:41.307Z,8.10
2018-01-05T07:28:43.838Z,8.00
2018-01-05T07:29:46.356Z,7.90
2018-01-05T07:30:49.363Z,7.90
2018-01-05T07:31:51.881Z,7.80
2018-01-05T07:32:54.394Z,7.80
2018-01-05T07:33:57.755Z,7.80
2018-01-05T07:35:00.288Z,7.70
2018-01-05T07:36:02.811Z,7.70
2018-01-05T07:37:06.122Z,7.70
2018-01-05T07:38:09.487Z,7.70
2018-01-05T07:39:12.194Z,7.70
2018-01-05T07:40:14.699Z,7.70
2018-01-05T07:41:17.977Z,7.60
2018-01-05T07:42:21.278Z,7.60
2018-01-05T07:43:24.578Z,7.60
2018-01-05T07:44:27.861Z,7.60
2018-01-05T07:45:31.149Z,7.60
2018-01-05T07:46:33.690Z,7.60
2018-01-05T07:47:36.232Z,7.60
2018-01-05T07:48:38.777Z,7.60
2018-01-05T07:49:41.295Z,7.60
2018-01-05T07:50:43.778Z,7.60
2018-01-05T07:51:46.302Z,7.60
2018-01-05T07:52:49.582Z,7.60
2018-01-05T07:53:52.131Z,7.60
2018-01-05T07:54:54.732Z,7.60
2018-01-05T07:55:57.411Z,7.50
2018-01-05T07:56:59.946Z,7.50
2018-01-05T07:58:02.449Z,7.50
2018-01-05T07:59:05.039Z,7.50
2018-01-05T08:00:07.554Z,7.50
2018-01-05T08:01:22.388Z,7.50
2018-01-05T08:02:24.912Z,7.50
2018-01-05T08:03:27.470Z,7.50
2018-01-05T08:04:30.767Z,7.50
2018-01-05T08:05:34.104Z,7.50
2018-01-05T08:06:36.682Z,7.50
2018-01-05T08:07:40.007Z,7.50
2018-01-05T08:08:43.331Z,7.50
2018-01-05T08:09:46.564Z,7.50
2018-01-05T08:10:49.836Z,7.50
2018-01-05T08:11:52.367Z,7.50
2018-01-05T08:12:54.876Z,7.50
2018-01-05T08:13:57.405Z,7.50
2018-01-05T08:15:01.486Z,7.50
2018-01-05T08:16:04.800Z,7.50
2018-01-05T08:17:08.098Z,7.50
2018-01-05T08:18:11.691Z,7.50
2018-01-05T08:19:14.206Z,7.50
2018-01-05T08:20:17.631Z,7.50
2018-01-05T08:21:20.963Z,7.50
2018-01-05T08:22:24.268Z,7.50
2018-01-05T08:23:26.780Z,7.50
2018-01-05T08:24:30.881Z,7.50
2018-01-05T08:25:33.402Z,7.50
2018-01-05T08:26:35.943Z,7.50
2018-01-05T08:27:43.022Z,7.40
2018-01-05T08:28:45.583Z,7.40
2018-01-05T08:29:48.846Z,7.40
2018-01-05T08:30:51.352Z,7.40
2018-01-05T08:31:54.820Z,7.50
2018-01-05T08:32:57.363Z,7.40
2018-01-05T08:33:59.829Z,7.50
2018-01-05T08:35:03.150Z,7.60
2018-01-05T08:36:06.060Z,7.50
2018-01-05T08:37:14.937Z,7.60
2018-01-05T08:38:25.796Z,7.60
2018-01-05T08:39:28.709Z,7.60
2018-01-05T08:40:31.226Z,7.60
2018-01-05T08:41:34.646Z,7.60
2018-01-05T08:42:37.200Z,7.60
2018-01-05T08:43:39.714Z,7.60
2018-01-05T08:44:42.274Z,7.60
2018-01-05T08:45:44.797Z,7.60
2018-01-05T08:46:47.325Z,7.60
2018-01-05T08:47:49.860Z,7.60
2018-01-05T08:48:52.507Z,7.60
2018-01-05T08:49:55.029Z,7.60
2018-01-05T08:50:57.574Z,7.60
2018-01-05T08:52:00.079Z,7.60
2018-01-05T08:53:02.613Z,7.60
2018-01-05T08:54:05.126Z,7.60
2018-01-05T08:55:07.632Z,7.60
2018-01-05T08:56:25.024Z,7.60
2018-01-05T08:57:27.591Z,7.50
2018-01-05T08:58:30.102Z,7.50
2018-01-05T08:59:32.648Z,7.50
2018-01-05T09:00:35.196Z,7.50
2018-01-05T09:01:37.721Z,7.50
2018-01-05T09:02:40.239Z,7.50
2018-01-05T09:03:42.775Z,7.50
2018-01-05T09:04:45.343Z,7.40
2018-01-05T09:05:47.870Z,7.40
2018-01-05T09:06:51.128Z,7.40
2018-01-05T09:07:53.658Z,7.50
2018-01-05T09:08:56.185Z,7.50
2018-01-05T09:09:58.714Z,7.50
2018-01-05T09:11:01.221Z,7.50
2018-01-05T09:12:03.746Z,7.50
2018-01-05T09:13:07.028Z,7.60
2018-01-05T09:14:09.785Z,7.60
2018-01-05T09:15:14.152Z,7.70
2018-01-05T09:16:16.685Z,7.70
2018-01-05T09:17:19.224Z,7.80
2018-01-05T09:18:22.480Z,7.80
2018-01-05T09:19:25.040Z,7.90
2018-01-05T09:20:27.563Z,7.90
2018-01-05T09:21:30.934Z,8.00
2018-01-05T09:22:33.448Z,7.90
2018-01-05T09:23:36.553Z,8.00
2018-01-05T09:24:39.116Z,8.00
2018-01-05T09:25:41.661Z,8.10
2018-01-05T09:26:44.928Z,8.10
2018-01-05T09:27:47.508Z,8.10
2018-01-05T09:28:50.997Z,8.10
2018-01-05T09:29:53.563Z,8.10
2018-01-05T09:30:56.112Z,8.20
2018-01-05T09:31:58.690Z,8.10
2018-01-05T09:33:01.214Z,8.10
2018-01-05T09:34:03.761Z,8.10
2018-01-05T09:35:06.353Z,8.10
2018-01-05T09:36:09.643Z,8.10
2018-01-05T09:37:14.145Z,8.10
2018-01-05T09:38:16.666Z,8.10
2018-01-05T09:39:20.749Z,8.10
2018-01-05T09:40:23.331Z,8.10
2018-01-05T09:41:25.913Z,8.10
2018-01-05T09:42:28.434Z,8.10
2018-01-05T09:43:30.976Z,8.10
2018-01-05T09:44:33.513Z,8.10
2018-01-05T09:45:36.052Z,8.10
2018-01-05T09:46:38.581Z,8.00
2018-01-05T09:47:41.148Z,8.00
2018-01-05T09:48:43.672Z,8.00
2018-01-05T09:49:46.209Z,8.00
2018-01-05T09:50:48.753Z,8.00
2018-01-05T09:51:51.294Z,8.00
2018-01-05T09:52:54.618Z,8.10
2018-01-05T09:53:57.144Z,8.00
2018-01-05T09:54:59.694Z,8.00
2018-01-05T09:56:02.260Z,8.00
2018-01-05T09:57:04.817Z,8.00
2018-01-05T09:58:07.392Z,8.00
2018-01-05T09:59:11.161Z,8.00
2018-01-05T10:00:14.519Z,8.00
2018-01-05T10:01:17.027Z,8.00
2018-01-05T10:02:19.560Z,8.00
2018-01-05T10:03:22.902Z,8.20
2018-01-05T10:04:25.443Z,8.20
2018-01-05T10:05:28.746Z,8.20
2018-01-05T10:06:31.336Z,8.20
2018-01-05T10:07:33.856Z,8.20
2018-01-05T10:08:36.969Z,8.30
2018-01-05T10:09:40.276Z,8.40
2018-01-05T10:10:42.794Z,8.40
2018-01-05T10:11:46.073Z,8.40
2018-01-05T10:12:48.582Z,8.40
2018-01-05T10:13:51.871Z,8.50
2018-01-05T10:14:55.145Z,8.60
2018-01-05T10:15:57.681Z,8.60
2018-01-05T10:17:00.266Z,8.60
2018-01-05T10:18:02.822Z,8.70
2018-01-05T10:19:05.498Z,8.70
2018-01-05T10:20:08.056Z,8.80
2018-01-05T10:21:15.750Z,8.80
2018-01-05T10:22:26.082Z,8.90
2018-01-05T10:23:28.621Z,8.90
2018-01-05T10:24:31.134Z,9.00
2018-01-05T10:25:33.666Z,9.00
2018-01-05T10:26:36.191Z,9.10
2018-01-05T10:27:38.719Z,9.10
2018-01-05T10:28:41.272Z,9.00
2018-01-05T10:29:43.800Z,9.00
2018-01-05T10:30:46.302Z,9.10
2018-01-05T10:31:48.831Z,9.10
2018-01-05T10:32:51.413Z,9.10
2018-01-05T10:33:53.940Z,9.10
2018-01-05T10:34:56.462Z,9.10
2018-01-05T10:35:58.999Z,9.10
2018-01-05T10:37:02.327Z,9.10
2018-01-05T10:38:04.881Z,9.10
2018-01-05T10:39:07.462Z,9.10
2018-01-05T10:40:10.010Z,9.20
2018-01-05T10:41:13.460Z,9.20
2018-01-05T10:42:16.132Z,9.20
2018-01-05T10:43:18.673Z,9.20
2018-01-05T10:44:21.218Z,9.20
2018-01-05T10:45:24.509Z,9.30
2018-01-05T10:46:27.817Z,9.30
2018-01-05T10:47:30.368Z,9.30
2018-01-05T10:48:33.676Z,9.40
2018-01-05T10:49:36.240Z,9.40
2018-01-05T10:50:38.765Z,9.50
2018-01-05T10:51:41.302Z,9.50
2018-01-05T10:52:43.852Z,9.60
2018-01-05T10:53:46.430Z,9.60
2018-01-05T10:54:49.725Z,9.70
2018-01-05T10:55:52.517Z,9.70
2018-01-05T10:56:55.110Z,9.70
2018-01-05T10:57:57.641Z,9.80
2018-01-05T10:59:00.243Z,9.80
2018-01-05T11:00:02.784Z,9.90
2018-01-05T11:01:05.335Z,9.90
2018-01-05T11:02:08.602Z,10.00
2018-01-05T11:03:11.241Z,9.90
2018-01-05T11:04:13.811Z,9.90
2018-01-05T11:05:16.325Z,9.90
2018-01-05T11:06:18.861Z,9.90
2018-01-05T11:07:21.374Z,9.90
2018-01-05T11:08:23.891Z,9.80
2018-01-05T11:09:26.424Z,9.80
2018-01-05T11:10:29.030Z,9.90
2018-01-05T11:11:31.590Z,9.80
2018-01-05T11:12:34.125Z,9.80
2018-01-05T11:13:36.681Z,9.80
2018-01-05T11:14:39.243Z,9.80
2018-01-05T11:15:41.790Z,9.80
2018-01-05T11:16:45.263Z,9.80
2018-01-05T11:17:48.569Z,9.70
2018-01-05T11:18:51.088Z,9.70
2018-01-05T11:19:53.640Z,9.70
2018-01-05T11:20:56.250Z,9.80
2018-01-05T11:21:59.091Z,9.80
2018-01-05T11:23:01.651Z,9.80
2018-01-05T11:24:04.176Z,9.80
2018-01-05T11:25:07.609Z,9.80
2018-01-05T11:26:13.380Z,9.70
2018-01-05T11:27:15.917Z,9.70
2018-01-05T11:28:18.792Z,9.70
2018-01-05T11:29:21.328Z,9.70
2018-01-05T11:30:23.893Z,9.70
2018-01-05T11:31:26.401Z,9.70
2018-01-05T11:32:28.925Z,9.70
2018-01-05T11:33:31.433Z,9.70
2018-01-05T11:34:34.725Z,9.70
2018-01-05T11:35:38.058Z,9.60
2018-01-05T11:36:40.721Z,9.60
2018-01-05T11:37:44.025Z,9.70
2018-01-05T11:38:46.576Z,9.60
2018-01-05T11:39:49.139Z,9.60
2018-01-05T11:40:51.642Z,9.70
2018-01-05T11:41:54.194Z,9.70
2018-01-05T11:42:56.706Z,9.70
2018-01-05T11:43:59.296Z,9.70
2018-01-05T11:45:01.857Z,9.70
2018-01-05T11:46:04.390Z,9.70
2018-01-05T11:47:06.912Z,9.70
2018-01-05T11:48:11.281Z,9.70
2018-01-05T11:49:13.840Z,9.70
2018-01-05T11:50:18.757Z,9.80
2018-01-05T11:51:21.471Z,9.80
2018-01-05T11:52:24.054Z,9.70
2018-01-05T11:53:26.598Z,9.80
2018-01-05T11:54:29.131Z,9.80
2018-01-05T11:55:31.691Z,9.80
2018-01-05T11:56:34.970Z,9.80
2018-01-05T11:57:37.756Z,9.80
2018-01-05T11:58:41.078Z,9.80
2018-01-05T11:59:43.614Z,9.80
2018-01-05T12:00:46.939Z,9.90
2018-01-05T12:01:49.541Z,9.90
2018-01-05T12:02:52.042Z,9.90
2018-01-05T12:03:54.586Z,9.90
2018-01-05T12:04:57.103Z,10.00
2018-01-05T12:05:59.688Z,10.00
2018-01-05T12:07:02.376Z,10.00
2018-01-05T12:08:04.930Z,10.00
2018-01-05T12:09:08.339Z,10.00
2018-01-05T12:10:16.542Z,10.00
2018-01-05T12:11:23.746Z,10.00
2018-01-05T12:12:28.782Z,10.00
2018-01-05T12:13:36.621Z,10.00
2018-01-05T12:14:39.921Z,10.00
2018-01-05T12:15:42.526Z,10.00
2018-01-05T12:16:45.039Z,10.00
2018-01-05T12:17:47.593Z,10.10
2018-01-05T12:18:50.110Z,10.10
2018-01-05T12:19:52.637Z,10.10
2018-01-05T12:20:55.200Z,10.10
2018-01-05T12:21:57.728Z,10.20
2018-01-05T12:23:00.313Z,10.20
2018-01-05T12:24:02.914Z,10.10
2018-01-05T12:25:05.430Z,10.10
2018-01-05T12:27:24.610Z,10.30
2018-01-05T12:28:27.177Z,10.20
2018-01-05T12:29:30.457Z,10.30
2018-01-05T12:30:33.023Z,10.30
2018-01-05T12:31:35.542Z,10.30
2018-01-05T12:32:38.066Z,10.30
2018-01-05T12:33:41.391Z,10.40
2018-01-05T12:34:43.959Z,10.30
2018-01-05T12:35:46.526Z,10.40
2018-01-05T12:36:49.978Z,10.40
2018-01-05T12:37:52.538Z,10.50
2018-01-05T12:38:55.067Z,10.50
2018-01-05T12:39:57.589Z,10.50
2018-01-05T12:41:00.114Z,10.50
2018-01-05T12:42:02.681Z,10.50
2018-01-05T12:43:05.235Z,10.50
2018-01-05T12:44:08.530Z,10.40
2018-01-05T12:45:27.481Z,10.40
2018-01-05T12:46:30.062Z,10.40
2018-01-05T12:47:33.331Z,10.40
2018-01-05T12:48:35.908Z,10.30
2018-01-05T12:49:39.504Z,10.30
2018-01-05T12:50:42.572Z,10.30
2018-01-05T12:51:45.901Z,10.40
2018-01-05T12:52:48.478Z,10.30
2018-01-05T12:53:50.997Z,10.30
2018-01-05T12:54:53.561Z,10.40
2018-01-05T12:55:56.093Z,10.40
2018-01-05T12:56:58.658Z,10.40
2018-01-05T12:58:01.189Z,10.40
2018-01-05T12:59:03.733Z,10.50
2018-01-05T13:00:06.276Z,10.50
2018-01-05T13:01:08.804Z,10.50
2018-01-05T13:02:19.369Z,10.50
2018-01-05T13:03:25.078Z,10.40
2018-01-05T13:04:29.709Z,10.50
2018-01-05T13:05:32.299Z,10.50
2018-01-05T13:06:34.841Z,10.50
2018-01-05T13:07:37.387Z,10.50
2018-01-05T13:08:40.852Z,10.50
2018-01-05T13:09:43.411Z,10.50
2018-01-05T13:10:45.936Z,10.50
2018-01-05T13:11:48.486Z,10.50
2018-01-05T13:12:51.073Z,10.50
2018-01-05T13:13:53.599Z,10.50
2018-01-05T13:14:56.152Z,10.50
2018-01-05T13:15:58.890Z,10.50
2018-01-05T13:17:01.646Z,10.40
2018-01-05T13:18:04.198Z,10.40
2018-01-05T13:19:06.854Z,10.50
2018-01-05T13:20:09.437Z,10.50
2018-01-05T13:21:23.055Z,10.50
2018-01-05T13:22:25.612Z,10.50
2018-01-05T13:23:28.916Z,10.40
2018-01-05T13:24:31.465Z,10.40
2018-01-05T13:25:33.995Z,10.40
2018-01-05T13:26:36.531Z,10.40
2018-01-05T13:27:39.073Z,10.40
2018-01-05T13:28:41.636Z,10.40
2018-01-05T13:29:44.203Z,10.50
2018-01-05T13:30:47.506Z,10.40
2018-01-05T13:31:50.048Z,10.40
2018-01-05T13:32:53.378Z,10.40
2018-01-05T13:33:55.951Z,10.40
2018-01-05T13:34:58.538Z,10.40
2018-01-05T13:36:01.133Z,10.40
2018-01-05T13:37:03.640Z,10.40
2018-01-05T13:38:06.958Z,10.40
2018-01-05T13:39:09.808Z,10.30
2018-01-05T13:40:23.653Z,10.30
2018-01-05T13:41:26.190Z,10.30
2018-01-05T13:42:28.715Z,10.20
2018-01-05T13:43:31.216Z,10.30
2018-01-05T13:44:33.728Z,10.20
2018-01-05T13:45:36.256Z,10.20
2018-01-05T13:46:38.814Z,10.20
2018-01-05T13:47:41.344Z,10.10
2018-01-05T13:48:44.774Z,10.10
2018-01-05T13:49:47.284Z,10.10
2018-01-05T13:50:49.801Z,10.10
2018-01-05T13:51:52.338Z,10.10
2018-01-05T13:52:55.664Z,10.00
2018-01-05T13:53:58.238Z,10.00
2018-01-05T13:55:00.764Z,9.90